sensor_id;sensor_type;location;lat;lon;timestamp;P1;durP1;ratioP1;P2;durP2;ratioP2
7191;SDS011;3637;51.494;11.958;2022-10-16T00:01:15;0.90;;;0.90;;
7191;SDS011;3637;51.494;11.958;2022-10-16T00:04:20;1.17;;;1.10;;
7191;SDS011;3637;51.494;11.958;2022-10-16T00:07:22;0.87;;;0.87;;
7191;SDS011;3637;51.494;11.958;2022-10-16T00:10:24;0.87;;;0.87;;
7191;SDS011;3637;51.494;11.958;2022-10-16T00:13:26;1.00;;;1.00;;
7191;SDS011;3637;51.494;11.958;2022-10-16T00:16:28;1.20;;;1.10;;
7191;SDS011;3637;51.494;11.958;2022-10-16T00:19:32;1.23;;;1.17;;
7191;SDS011;3637;51.494;11.958;2022-10-16T00:22:34;0.90;;;0.90;;
7191;SDS011;3637;51.494;11.958;2022-10-16T00:25:36;1.23;;;1.20;;
7191;SDS011;3637;51.494;11.958;2022-10-16T00:28:38;1.20;;;1.10;;
7191;SDS011;3637;51.494;11.958;2022-10-16T00:31:40;0.90;;;0.90;;
7191;SDS011;3637;51.494;11.958;2022-10-16T00:34:43;1.13;;;1.03;;
7191;SDS011;3637;51.494;11.958;2022-10-16T00:37:45;0.97;;;0.97;;
7191;SDS011;3637;51.494;11.958;2022-10-16T00:40:47;1.17;;;1.10;;
7191;SDS011;3637;51.494;11.958;2022-10-16T00:43:50;1.20;;;1.10;;
7191;SDS011;3637;51.494;11.958;2022-10-16T00:46:53;1.00;;;1.00;;
7191;SDS011;3637;51.494;11.958;2022-10-16T00:49:58;1.00;;;1.00;;
7191;SDS011;3637;51.494;11.958;2022-10-16T00:53:03;2.00;;;1.20;;
7191;SDS011;3637;51.494;11.958;2022-10-16T00:56:05;1.27;;;1.17;;
7191;SDS011;3637;51.494;11.958;2022-10-16T00:59:10;1.10;;;1.10;;
7191;SDS011;3637;51.494;11.958;2022-10-16T01:02:17;1.10;;;1.10;;
7191;SDS011;3637;51.494;11.958;2022-10-16T01:05:21;1.07;;;0.97;;
7191;SDS011;3637;51.494;11.958;2022-10-16T01:08:25;1.67;;;1.30;;
7191;SDS011;3637;51.494;11.958;2022-10-16T01:11:37;2.10;;;0.90;;
7191;SDS011;3637;51.494;11.958;2022-10-16T01:14:45;1.27;;;1.20;;
7191;SDS011;3637;51.494;11.958;2022-10-16T01:17:56;1.40;;;1.30;;
7191;SDS011;3637;51.494;11.958;2022-10-16T01:21:03;1.03;;;1.03;;
7191;SDS011;3637;51.494;11.958;2022-10-16T01:24:08;1.00;;;1.00;;
7191;SDS011;3637;51.494;11.958;2022-10-16T01:27:20;1.23;;;1.13;;
7191;SDS011;3637;51.494;11.958;2022-10-16T01:30:26;1.30;;;1.20;;
7191;SDS011;3637;51.494;11.958;2022-10-16T01:33:33;1.33;;;1.23;;
7191;SDS011;3637;51.494;11.958;2022-10-16T01:36:39;1.30;;;1.20;;
7191;SDS011;3637;51.494;11.958;2022-10-16T01:39:46;1.30;;;1.20;;
7191;SDS011;3637;51.494;11.958;2022-10-16T01:42:53;1.33;;;1.10;;
7191;SDS011;3637;51.494;11.958;2022-10-16T01:45:58;1.00;;;1.00;;
7191;SDS011;3637;51.494;11.958;2022-10-16T01:49:02;1.40;;;1.30;;
7191;SDS011;3637;51.494;11.958;2022-10-16T01:52:06;1.17;;;1.10;;
7191;SDS011;3637;51.494;11.958;2022-10-16T01:55:12;1.63;;;1.30;;
7191;SDS011;3637;51.494;11.958;2022-10-16T01:58:20;1.40;;;1.30;;
7191;SDS011;3637;51.494;11.958;2022-10-16T02:01:25;1.37;;;1.27;;
7191;SDS011;3637;51.494;11.958;2022-10-16T02:04:30;1.40;;;1.30;;
7191;SDS011;3637;51.494;11.958;2022-10-16T02:07:35;1.37;;;1.10;;
7191;SDS011;3637;51.494;11.958;2022-10-16T02:10:37;1.50;;;1.20;;
7191;SDS011;3637;51.494;11.958;2022-10-16T02:13:42;1.37;;;1.20;;
7191;SDS011;3637;51.494;11.958;2022-10-16T02:16:47;1.17;;;1.13;;
7191;SDS011;3637;51.494;11.958;2022-10-16T02:19:50;1.50;;;1.10;;
7191;SDS011;3637;51.494;11.958;2022-10-16T02:22:55;1.07;;;1.07;;
7191;SDS011;3637;51.494;11.958;2022-10-16T02:25:57;1.40;;;1.30;;
7191;SDS011;3637;51.494;11.958;2022-10-16T02:29:02;1.13;;;1.03;;
7191;SDS011;3637;51.494;11.958;2022-10-16T02:32:09;1.30;;;1.20;;
7191;SDS011;3637;51.494;11.958;2022-10-16T02:35:14;1.40;;;1.30;;
7191;SDS011;3637;51.494;11.958;2022-10-16T02:38:17;2.80;;;1.50;;
7191;SDS011;3637;51.494;11.958;2022-10-16T02:41:20;1.30;;;1.20;;
7191;SDS011;3637;51.494;11.958;2022-10-16T02:44:24;1.30;;;1.20;;
7191;SDS011;3637;51.494;11.958;2022-10-16T02:47:26;1.20;;;1.10;;
7191;SDS011;3637;51.494;11.958;2022-10-16T02:50:28;1.30;;;1.20;;
7191;SDS011;3637;51.494;11.958;2022-10-16T02:53:30;1.30;;;1.20;;
7191;SDS011;3637;51.494;11.958;2022-10-16T02:56:32;1.93;;;1.10;;
7191;SDS011;3637;51.494;11.958;2022-10-16T02:59:35;1.20;;;1.20;;
7191;SDS011;3637;51.494;11.958;2022-10-16T03:02:37;1.80;;;1.37;;
7191;SDS011;3637;51.494;11.958;2022-10-16T03:05:39;1.43;;;1.33;;
7191;SDS011;3637;51.494;11.958;2022-10-16T03:08:41;1.27;;;1.17;;
7191;SDS011;3637;51.494;11.958;2022-10-16T03:11:43;1.17;;;1.10;;
7191;SDS011;3637;51.494;11.958;2022-10-16T03:14:46;1.40;;;1.30;;
7191;SDS011;3637;51.494;11.958;2022-10-16T03:17:48;1.40;;;1.30;;
7191;SDS011;3637;51.494;11.958;2022-10-16T03:20:50;1.40;;;1.30;;
7191;SDS011;3637;51.494;11.958;2022-10-16T03:23:52;1.50;;;1.40;;
7191;SDS011;3637;51.494;11.958;2022-10-16T03:26:53;1.20;;;1.10;;
7191;SDS011;3637;51.494;11.958;2022-10-16T03:29:57;1.47;;;1.30;;
7191;SDS011;3637;51.494;11.958;2022-10-16T03:32:59;1.20;;;1.20;;
7191;SDS011;3637;51.494;11.958;2022-10-16T03:36:01;1.50;;;1.40;;
7191;SDS011;3637;51.494;11.958;2022-10-16T03:39:03;1.40;;;1.30;;
7191;SDS011;3637;51.494;11.958;2022-10-16T03:42:04;2.47;;;1.20;;
7191;SDS011;3637;51.494;11.958;2022-10-16T03:45:08;1.43;;;1.23;;
7191;SDS011;3637;51.494;11.958;2022-10-16T03:48:11;5.13;;;1.40;;
7191;SDS011;3637;51.494;11.958;2022-10-16T03:51:13;1.40;;;1.30;;
7191;SDS011;3637;51.494;11.958;2022-10-16T03:54:15;1.30;;;1.20;;
7191;SDS011;3637;51.494;11.958;2022-10-16T03:57:16;1.50;;;1.40;;
7191;SDS011;3637;51.494;11.958;2022-10-16T04:00:20;1.33;;;1.23;;
7191;SDS011;3637;51.494;11.958;2022-10-16T04:03:22;1.33;;;1.23;;
7191;SDS011;3637;51.494;11.958;2022-10-16T04:06:24;2.70;;;1.27;;
7191;SDS011;3637;51.494;11.958;2022-10-16T04:09:29;1.47;;;1.37;;
7191;SDS011;3637;51.494;11.958;2022-10-16T04:12:30;1.40;;;1.30;;
7191;SDS011;3637;51.494;11.958;2022-10-16T04:15:34;1.93;;;1.53;;
7191;SDS011;3637;51.494;11.958;2022-10-16T04:18:36;1.57;;;1.47;;
7191;SDS011;3637;51.494;11.958;2022-10-16T04:21:37;1.40;;;1.30;;
7191;SDS011;3637;51.494;11.958;2022-10-16T04:24:39;1.50;;;1.40;;
7191;SDS011;3637;51.494;11.958;2022-10-16T04:27:42;1.67;;;1.57;;
7191;SDS011;3637;51.494;11.958;2022-10-16T04:30:45;1.97;;;1.50;;
7191;SDS011;3637;51.494;11.958;2022-10-16T04:33:47;1.53;;;1.43;;
7191;SDS011;3637;51.494;11.958;2022-10-16T04:36:49;1.60;;;1.50;;
7191;SDS011;3637;51.494;11.958;2022-10-16T04:39:51;2.20;;;1.47;;
7191;SDS011;3637;51.494;11.958;2022-10-16T04:42:53;1.20;;;1.10;;
7191;SDS011;3637;51.494;11.958;2022-10-16T04:45:56;1.43;;;1.33;;
7191;SDS011;3637;51.494;11.958;2022-10-16T04:48:58;1.70;;;1.40;;
7191;SDS011;3637;51.494;11.958;2022-10-16T04:52:00;1.30;;;1.20;;
7191;SDS011;3637;51.494;11.958;2022-10-16T04:55:02;1.30;;;1.20;;
7191;SDS011;3637;51.494;11.958;2022-10-16T04:58:05;5.53;;;1.50;;
7191;SDS011;3637;51.494;11.958;2022-10-16T05:01:08;1.27;;;1.17;;
7191;SDS011;3637;51.494;11.958;2022-10-16T05:04:10;1.40;;;1.30;;
7191;SDS011;3637;51.494;11.958;2022-10-16T05:07:12;1.43;;;1.23;;
7191;SDS011;3637;51.494;11.958;2022-10-16T05:10:14;3.60;;;1.90;;
7191;SDS011;3637;51.494;11.958;2022-10-16T05:13:16;1.33;;;1.23;;
7191;SDS011;3637;51.494;11.958;2022-10-16T05:16:19;3.53;;;1.60;;
7191;SDS011;3637;51.494;11.958;2022-10-16T05:19:21;1.40;;;1.30;;
7191;SDS011;3637;51.494;11.958;2022-10-16T05:22:23;1.57;;;1.47;;
7191;SDS011;3637;51.494;11.958;2022-10-16T05:25:25;1.97;;;1.50;;
7191;SDS011;3637;51.494;11.958;2022-10-16T05:28:27;1.20;;;1.17;;
7191;SDS011;3637;51.494;11.958;2022-10-16T05:31:32;2.20;;;1.30;;
7191;SDS011;3637;51.494;11.958;2022-10-16T05:34:33;1.87;;;1.60;;
7191;SDS011;3637;51.494;11.958;2022-10-16T05:37:35;1.40;;;1.30;;
7191;SDS011;3637;51.494;11.958;2022-10-16T05:40:37;6.73;;;1.87;;
7191;SDS011;3637;51.494;11.958;2022-10-16T05:43:39;1.30;;;1.20;;
7191;SDS011;3637;51.494;11.958;2022-10-16T05:46:42;1.57;;;1.47;;
7191;SDS011;3637;51.494;11.958;2022-10-16T05:49:44;1.50;;;1.40;;
7191;SDS011;3637;51.494;11.958;2022-10-16T05:52:46;1.47;;;1.30;;
7191;SDS011;3637;51.494;11.958;2022-10-16T05:55:51;1.40;;;1.30;;
7191;SDS011;3637;51.494;11.958;2022-10-16T05:58:54;1.70;;;1.50;;
7191;SDS011;3637;51.494;11.958;2022-10-16T06:01:57;2.60;;;1.50;;
7191;SDS011;3637;51.494;11.958;2022-10-16T06:04:59;1.27;;;1.23;;
7191;SDS011;3637;51.494;11.958;2022-10-16T06:08:01;1.77;;;1.60;;
7191;SDS011;3637;51.494;11.958;2022-10-16T06:11:03;1.40;;;1.30;;
7191;SDS011;3637;51.494;11.958;2022-10-16T06:14:05;1.70;;;1.60;;
7191;SDS011;3637;51.494;11.958;2022-10-16T06:17:10;2.73;;;1.53;;
7191;SDS011;3637;51.494;11.958;2022-10-16T06:20:12;1.53;;;1.43;;
7191;SDS011;3637;51.494;11.958;2022-10-16T06:23:14;2.10;;;1.43;;
7191;SDS011;3637;51.494;11.958;2022-10-16T06:26:16;2.30;;;1.50;;
7191;SDS011;3637;51.494;11.958;2022-10-16T06:29:19;2.60;;;1.70;;
7191;SDS011;3637;51.494;11.958;2022-10-16T06:32:23;2.10;;;1.53;;
7191;SDS011;3637;51.494;11.958;2022-10-16T06:35:25;1.70;;;1.60;;
7191;SDS011;3637;51.494;11.958;2022-10-16T06:38:26;1.70;;;1.60;;
7191;SDS011;3637;51.494;11.958;2022-10-16T06:41:28;1.50;;;1.40;;
7191;SDS011;3637;51.494;11.958;2022-10-16T06:44:30;1.60;;;1.50;;
7191;SDS011;3637;51.494;11.958;2022-10-16T06:47:34;1.43;;;1.33;;
7191;SDS011;3637;51.494;11.958;2022-10-16T06:50:35;1.50;;;1.40;;
7191;SDS011;3637;51.494;11.958;2022-10-16T06:53:39;1.90;;;1.70;;
7191;SDS011;3637;51.494;11.958;2022-10-16T06:56:43;3.13;;;2.03;;
7191;SDS011;3637;51.494;11.958;2022-10-16T06:59:45;2.17;;;1.50;;
7191;SDS011;3637;51.494;11.958;2022-10-16T07:02:48;1.80;;;1.70;;
7191;SDS011;3637;51.494;11.958;2022-10-16T07:05:51;1.63;;;1.53;;
7191;SDS011;3637;51.494;11.958;2022-10-16T07:08:53;1.67;;;1.50;;
7191;SDS011;3637;51.494;11.958;2022-10-16T07:11:55;1.73;;;1.63;;
7191;SDS011;3637;51.494;11.958;2022-10-16T07:14:57;1.60;;;1.50;;
7191;SDS011;3637;51.494;11.958;2022-10-16T07:18:00;1.50;;;1.40;;
7191;SDS011;3637;51.494;11.958;2022-10-16T07:21:03;1.60;;;1.50;;
7191;SDS011;3637;51.494;11.958;2022-10-16T07:24:07;1.70;;;1.60;;
7191;SDS011;3637;51.494;11.958;2022-10-16T07:27:12;1.70;;;1.60;;
7191;SDS011;3637;51.494;11.958;2022-10-16T07:30:15;2.00;;;1.77;;
7191;SDS011;3637;51.494;11.958;2022-10-16T07:33:19;1.50;;;1.40;;
7191;SDS011;3637;51.494;11.958;2022-10-16T07:36:20;1.43;;;1.33;;
7191;SDS011;3637;51.494;11.958;2022-10-16T07:39:23;1.50;;;1.40;;
7191;SDS011;3637;51.494;11.958;2022-10-16T07:42:24;2.03;;;1.50;;
7191;SDS011;3637;51.494;11.958;2022-10-16T07:45:28;2.57;;;1.40;;
7191;SDS011;3637;51.494;11.958;2022-10-16T07:48:32;1.40;;;1.30;;
7191;SDS011;3637;51.494;11.958;2022-10-16T07:51:34;5.13;;;1.50;;
7191;SDS011;3637;51.494;11.958;2022-10-16T07:54:38;1.40;;;1.30;;
7191;SDS011;3637;51.494;11.958;2022-10-16T07:57:40;1.40;;;1.30;;
7191;SDS011;3637;51.494;11.958;2022-10-16T08:00:41;1.37;;;1.27;;
7191;SDS011;3637;51.494;11.958;2022-10-16T08:03:45;3.17;;;1.90;;
7191;SDS011;3637;51.494;11.958;2022-10-16T08:06:48;1.50;;;1.40;;
7191;SDS011;3637;51.494;11.958;2022-10-16T08:09:50;1.27;;;1.17;;
7191;SDS011;3637;51.494;11.958;2022-10-16T08:12:52;1.50;;;1.40;;
7191;SDS011;3637;51.494;11.958;2022-10-16T08:15:55;1.40;;;1.30;;
7191;SDS011;3637;51.494;11.958;2022-10-16T08:18:58;1.53;;;1.43;;
7191;SDS011;3637;51.494;11.958;2022-10-16T08:22:00;1.50;;;1.40;;
7191;SDS011;3637;51.494;11.958;2022-10-16T08:25:02;1.60;;;1.50;;
7191;SDS011;3637;51.494;11.958;2022-10-16T08:28:04;1.93;;;1.70;;
7191;SDS011;3637;51.494;11.958;2022-10-16T08:31:07;1.57;;;1.47;;
7191;SDS011;3637;51.494;11.958;2022-10-16T08:34:12;1.67;;;1.57;;
7191;SDS011;3637;51.494;11.958;2022-10-16T08:37:14;1.50;;;1.40;;
7191;SDS011;3637;51.494;11.958;2022-10-16T08:40:16;1.57;;;1.47;;
7191;SDS011;3637;51.494;11.958;2022-10-16T08:43:24;1.73;;;1.50;;
7191;SDS011;3637;51.494;11.958;2022-10-16T08:46:43;1.70;;;1.60;;
7191;SDS011;3637;51.494;11.958;2022-10-16T08:49:56;2.40;;;1.67;;
7191;SDS011;3637;51.494;11.958;2022-10-16T08:53:02;1.80;;;1.70;;
7191;SDS011;3637;51.494;11.958;2022-10-16T08:56:06;2.63;;;1.40;;
7191;SDS011;3637;51.494;11.958;2022-10-16T08:59:09;1.20;;;1.20;;
7191;SDS011;3637;51.494;11.958;2022-10-16T09:02:20;1.37;;;1.27;;
7191;SDS011;3637;51.494;11.958;2022-10-16T09:05:42;1.33;;;1.23;;
7191;SDS011;3637;51.494;11.958;2022-10-16T09:09:05;1.23;;;1.13;;
7191;SDS011;3637;51.494;11.958;2022-10-16T09:12:31;1.10;;;1.10;;
7191;SDS011;3637;51.494;11.958;2022-10-16T09:15:39;1.77;;;1.10;;
7191;SDS011;3637;51.494;11.958;2022-10-16T09:18:49;1.23;;;1.13;;
7191;SDS011;3637;51.494;11.958;2022-10-16T09:21:59;1.30;;;1.20;;
7191;SDS011;3637;51.494;11.958;2022-10-16T09:25:11;0.90;;;0.90;;
7191;SDS011;3637;51.494;11.958;2022-10-16T09:28:14;1.33;;;1.23;;
7191;SDS011;3637;51.494;11.958;2022-10-16T09:31:18;1.00;;;1.00;;
7191;SDS011;3637;51.494;11.958;2022-10-16T09:34:23;1.40;;;1.30;;
7191;SDS011;3637;51.494;11.958;2022-10-16T09:37:33;1.10;;;1.00;;
7191;SDS011;3637;51.494;11.958;2022-10-16T09:40:35;1.13;;;1.10;;
7191;SDS011;3637;51.494;11.958;2022-10-16T09:43:39;1.27;;;1.13;;
7191;SDS011;3637;51.494;11.958;2022-10-16T09:46:43;1.03;;;1.00;;
7191;SDS011;3637;51.494;11.958;2022-10-16T09:49:50;1.07;;;1.00;;
7191;SDS011;3637;51.494;11.958;2022-10-16T09:53:05;0.90;;;0.90;;
7191;SDS011;3637;51.494;11.958;2022-10-16T09:56:10;0.90;;;0.90;;
7191;SDS011;3637;51.494;11.958;2022-10-16T09:59:14;0.90;;;0.90;;
7191;SDS011;3637;51.494;11.958;2022-10-16T10:02:18;1.00;;;1.00;;
7191;SDS011;3637;51.494;11.958;2022-10-16T10:05:25;3.97;;;1.17;;
7191;SDS011;3637;51.494;11.958;2022-10-16T10:08:29;0.80;;;0.80;;
7191;SDS011;3637;51.494;11.958;2022-10-16T10:11:42;0.77;;;0.77;;
7191;SDS011;3637;51.494;11.958;2022-10-16T10:14:54;1.00;;;1.00;;
7191;SDS011;3637;51.494;11.958;2022-10-16T10:17:57;0.90;;;0.90;;
7191;SDS011;3637;51.494;11.958;2022-10-16T10:21:02;1.43;;;0.80;;
7191;SDS011;3637;51.494;11.958;2022-10-16T10:24:10;2.17;;;1.00;;
7191;SDS011;3637;51.494;11.958;2022-10-16T10:27:13;1.27;;;0.93;;
7191;SDS011;3637;51.494;11.958;2022-10-16T10:30:18;1.27;;;1.00;;
7191;SDS011;3637;51.494;11.958;2022-10-16T10:33:27;1.20;;;1.10;;
7191;SDS011;3637;51.494;11.958;2022-10-16T10:36:36;0.83;;;0.83;;
7191;SDS011;3637;51.494;11.958;2022-10-16T10:39:42;0.90;;;0.90;;
7191;SDS011;3637;51.494;11.958;2022-10-16T10:42:49;2.60;;;1.27;;
7191;SDS011;3637;51.494;11.958;2022-10-16T10:45:59;1.20;;;0.80;;
7191;SDS011;3637;51.494;11.958;2022-10-16T10:49:11;0.80;;;0.80;;
7191;SDS011;3637;51.494;11.958;2022-10-16T10:52:36;0.70;;;0.70;;
7191;SDS011;3637;51.494;11.958;2022-10-16T10:55:49;0.90;;;0.90;;
7191;SDS011;3637;51.494;11.958;2022-10-16T11:02:33;1.87;;;1.40;;
7191;SDS011;3637;51.494;11.958;2022-10-16T11:05:40;1.23;;;1.13;;
7191;SDS011;3637;51.494;11.958;2022-10-16T11:08:45;1.20;;;1.10;;
7191;SDS011;3637;51.494;11.958;2022-10-16T11:11:54;0.97;;;0.97;;
7191;SDS011;3637;51.494;11.958;2022-10-16T11:15:00;1.10;;;1.10;;
7191;SDS011;3637;51.494;11.958;2022-10-16T11:18:06;1.23;;;1.13;;
7191;SDS011;3637;51.494;11.958;2022-10-16T11:21:12;1.00;;;1.00;;
7191;SDS011;3637;51.494;11.958;2022-10-16T11:24:19;1.23;;;1.00;;
7191;SDS011;3637;51.494;11.958;2022-10-16T11:27:27;1.03;;;0.97;;
7191;SDS011;3637;51.494;11.958;2022-10-16T11:30:39;2.87;;;1.37;;
7191;SDS011;3637;51.494;11.958;2022-10-16T11:33:46;1.00;;;1.00;;
7191;SDS011;3637;51.494;11.958;2022-10-16T11:36:53;1.17;;;1.10;;
7191;SDS011;3637;51.494;11.958;2022-10-16T11:40:03;1.17;;;1.10;;
7191;SDS011;3637;51.494;11.958;2022-10-16T11:43:13;1.23;;;1.13;;
7191;SDS011;3637;51.494;11.958;2022-10-16T11:46:19;1.30;;;1.20;;
7191;SDS011;3637;51.494;11.958;2022-10-16T11:49:24;2.37;;;1.00;;
7191;SDS011;3637;51.494;11.958;2022-10-16T11:52:30;0.90;;;0.90;;
7191;SDS011;3637;51.494;11.958;2022-10-16T11:55:40;1.00;;;1.00;;
7191;SDS011;3637;51.494;11.958;2022-10-16T11:58:48;3.20;;;1.23;;
7191;SDS011;3637;51.494;11.958;2022-10-16T12:01:57;1.00;;;1.00;;
7191;SDS011;3637;51.494;11.958;2022-10-16T12:05:16;0.90;;;0.90;;
7191;SDS011;3637;51.494;11.958;2022-10-16T12:08:24;0.90;;;0.90;;
7191;SDS011;3637;51.494;11.958;2022-10-16T12:11:31;1.10;;;1.00;;
7191;SDS011;3637;51.494;11.958;2022-10-16T12:14:39;1.00;;;1.00;;
7191;SDS011;3637;51.494;11.958;2022-10-16T12:17:41;0.80;;;0.80;;
7191;SDS011;3637;51.494;11.958;2022-10-16T12:20:42;1.07;;;1.00;;
7191;SDS011;3637;51.494;11.958;2022-10-16T12:24:02;0.80;;;0.80;;
7191;SDS011;3637;51.494;11.958;2022-10-16T12:27:05;1.20;;;1.10;;
7191;SDS011;3637;51.494;11.958;2022-10-16T12:30:23;0.93;;;0.93;;
7191;SDS011;3637;51.494;11.958;2022-10-16T12:33:28;1.37;;;1.13;;
7191;SDS011;3637;51.494;11.958;2022-10-16T12:36:32;1.20;;;1.10;;
7191;SDS011;3637;51.494;11.958;2022-10-16T12:39:35;1.20;;;1.20;;
7191;SDS011;3637;51.494;11.958;2022-10-16T12:42:38;2.60;;;0.93;;
7191;SDS011;3637;51.494;11.958;2022-10-16T12:45:41;0.77;;;0.77;;
7191;SDS011;3637;51.494;11.958;2022-10-16T12:48:43;1.00;;;1.00;;
7191;SDS011;3637;51.494;11.958;2022-10-16T12:51:48;1.13;;;1.00;;
7191;SDS011;3637;51.494;11.958;2022-10-16T12:54:49;0.90;;;0.90;;
7191;SDS011;3637;51.494;11.958;2022-10-16T12:58:00;0.70;;;0.70;;
7191;SDS011;3637;51.494;11.958;2022-10-16T13:01:12;0.80;;;0.80;;
7191;SDS011;3637;51.494;11.958;2022-10-16T13:04:32;2.80;;;1.03;;
7191;SDS011;3637;51.494;11.958;2022-10-16T13:08:06;0.80;;;0.80;;
7191;SDS011;3637;51.494;11.958;2022-10-16T13:11:23;1.00;;;1.00;;
7191;SDS011;3637;51.494;11.958;2022-10-16T13:14:37;1.07;;;1.00;;
7191;SDS011;3637;51.494;11.958;2022-10-16T13:17:57;0.90;;;0.90;;
7191;SDS011;3637;51.494;11.958;2022-10-16T13:21:10;1.43;;;1.33;;
7191;SDS011;3637;51.494;11.958;2022-10-16T13:24:25;1.30;;;1.00;;
7191;SDS011;3637;51.494;11.958;2022-10-16T13:27:40;1.50;;;1.07;;
7191;SDS011;3637;51.494;11.958;2022-10-16T13:30:52;0.90;;;0.90;;
7191;SDS011;3637;51.494;11.958;2022-10-16T13:33:58;1.00;;;1.00;;
7191;SDS011;3637;51.494;11.958;2022-10-16T13:37:01;0.80;;;0.80;;
7191;SDS011;3637;51.494;11.958;2022-10-16T13:40:09;1.30;;;1.10;;
7191;SDS011;3637;51.494;11.958;2022-10-16T13:43:20;0.90;;;0.90;;
7191;SDS011;3637;51.494;11.958;2022-10-16T13:46:25;0.80;;;0.80;;
7191;SDS011;3637;51.494;11.958;2022-10-16T13:49:28;1.20;;;1.10;;
7191;SDS011;3637;51.494;11.958;2022-10-16T13:52:30;1.30;;;1.20;;
7191;SDS011;3637;51.494;11.958;2022-10-16T13:55:33;2.03;;;1.23;;
7191;SDS011;3637;51.494;11.958;2022-10-16T13:58:35;1.17;;;1.10;;
7191;SDS011;3637;51.494;11.958;2022-10-16T14:01:40;1.13;;;1.00;;
7191;SDS011;3637;51.494;11.958;2022-10-16T14:04:45;1.20;;;1.10;;
7191;SDS011;3637;51.494;11.958;2022-10-16T14:07:49;0.90;;;0.90;;
7191;SDS011;3637;51.494;11.958;2022-10-16T14:10:53;1.13;;;1.03;;
7191;SDS011;3637;51.494;11.958;2022-10-16T14:13:57;1.77;;;1.00;;
7191;SDS011;3637;51.494;11.958;2022-10-16T14:16:58;1.03;;;1.03;;
7191;SDS011;3637;51.494;11.958;2022-10-16T14:20:03;1.20;;;1.17;;
7191;SDS011;3637;51.494;11.958;2022-10-16T14:23:21;0.97;;;0.97;;
7191;SDS011;3637;51.494;11.958;2022-10-16T14:26:26;3.07;;;1.13;;
7191;SDS011;3637;51.494;11.958;2022-10-16T14:29:29;1.93;;;1.10;;
7191;SDS011;3637;51.494;11.958;2022-10-16T14:32:32;1.20;;;1.10;;
7191;SDS011;3637;51.494;11.958;2022-10-16T14:35:36;1.20;;;1.10;;
7191;SDS011;3637;51.494;11.958;2022-10-16T14:38:39;1.30;;;1.20;;
7191;SDS011;3637;51.494;11.958;2022-10-16T14:41:44;1.13;;;1.00;;
7191;SDS011;3637;51.494;11.958;2022-10-16T14:44:47;1.83;;;0.90;;
7191;SDS011;3637;51.494;11.958;2022-10-16T14:47:53;2.93;;;1.10;;
7191;SDS011;3637;51.494;11.958;2022-10-16T14:50:59;1.30;;;1.07;;
7191;SDS011;3637;51.494;11.958;2022-10-16T14:54:01;0.70;;;0.70;;
7191;SDS011;3637;51.494;11.958;2022-10-16T14:57:03;1.10;;;1.10;;
7191;SDS011;3637;51.494;11.958;2022-10-16T15:00:08;0.97;;;0.97;;
7191;SDS011;3637;51.494;11.958;2022-10-16T15:03:22;1.07;;;1.07;;
7191;SDS011;3637;51.494;11.958;2022-10-16T15:06:25;0.90;;;0.90;;
7191;SDS011;3637;51.494;11.958;2022-10-16T15:09:30;1.20;;;1.10;;
7191;SDS011;3637;51.494;11.958;2022-10-16T15:12:32;1.23;;;1.13;;
7191;SDS011;3637;51.494;11.958;2022-10-16T15:15:34;1.00;;;1.00;;
7191;SDS011;3637;51.494;11.958;2022-10-16T15:18:38;1.30;;;1.20;;
7191;SDS011;3637;51.494;11.958;2022-10-16T15:21:41;1.00;;;1.00;;
7191;SDS011;3637;51.494;11.958;2022-10-16T15:24:43;1.43;;;1.30;;
7191;SDS011;3637;51.494;11.958;2022-10-16T15:27:45;1.20;;;1.10;;
7191;SDS011;3637;51.494;11.958;2022-10-16T15:30:48;1.00;;;1.00;;
7191;SDS011;3637;51.494;11.958;2022-10-16T15:33:52;5.27;;;1.20;;
7191;SDS011;3637;51.494;11.958;2022-10-16T15:37:01;1.30;;;1.20;;
7191;SDS011;3637;51.494;11.958;2022-10-16T15:40:04;1.50;;;1.40;;
7191;SDS011;3637;51.494;11.958;2022-10-16T15:43:07;2.50;;;1.80;;
7191;SDS011;3637;51.494;11.958;2022-10-16T15:46:11;2.30;;;1.70;;
7191;SDS011;3637;51.494;11.958;2022-10-16T15:49:14;3.13;;;1.60;;
7191;SDS011;3637;51.494;11.958;2022-10-16T15:52:18;2.03;;;1.40;;
7191;SDS011;3637;51.494;11.958;2022-10-16T15:55:20;1.70;;;1.60;;
7191;SDS011;3637;51.494;11.958;2022-10-16T15:58:22;2.00;;;1.80;;
7191;SDS011;3637;51.494;11.958;2022-10-16T16:01:24;7.33;;;2.20;;
7191;SDS011;3637;51.494;11.958;2022-10-16T16:04:29;1.97;;;1.70;;
7191;SDS011;3637;51.494;11.958;2022-10-16T16:07:33;2.47;;;2.00;;
7191;SDS011;3637;51.494;11.958;2022-10-16T16:10:35;1.97;;;1.50;;
7191;SDS011;3637;51.494;11.958;2022-10-16T16:13:37;1.30;;;1.20;;
7191;SDS011;3637;51.494;11.958;2022-10-16T16:16:40;1.73;;;1.63;;
7191;SDS011;3637;51.494;11.958;2022-10-16T16:19:42;2.57;;;1.93;;
7191;SDS011;3637;51.494;11.958;2022-10-16T16:22:46;1.70;;;1.43;;
7191;SDS011;3637;51.494;11.958;2022-10-16T16:26:01;2.93;;;1.67;;
7191;SDS011;3637;51.494;11.958;2022-10-16T16:29:05;1.87;;;1.60;;
7191;SDS011;3637;51.494;11.958;2022-10-16T16:32:07;2.87;;;2.00;;
7191;SDS011;3637;51.494;11.958;2022-10-16T16:35:09;1.73;;;1.47;;
7191;SDS011;3637;51.494;11.958;2022-10-16T16:38:12;2.33;;;1.60;;
7191;SDS011;3637;51.494;11.958;2022-10-16T16:41:14;1.90;;;1.50;;
7191;SDS011;3637;51.494;11.958;2022-10-16T16:44:18;2.97;;;1.87;;
7191;SDS011;3637;51.494;11.958;2022-10-16T16:47:20;2.30;;;1.50;;
7191;SDS011;3637;51.494;11.958;2022-10-16T16:50:22;2.53;;;1.50;;
7191;SDS011;3637;51.494;11.958;2022-10-16T16:53:25;2.10;;;1.80;;
7191;SDS011;3637;51.494;11.958;2022-10-16T16:56:27;5.57;;;2.23;;
7191;SDS011;3637;51.494;11.958;2022-10-16T16:59:29;7.63;;;2.20;;
7191;SDS011;3637;51.494;11.958;2022-10-16T17:02:32;8.60;;;2.20;;
7191;SDS011;3637;51.494;11.958;2022-10-16T17:05:34;2.07;;;1.83;;
7191;SDS011;3637;51.494;11.958;2022-10-16T17:08:38;2.43;;;1.90;;
7191;SDS011;3637;51.494;11.958;2022-10-16T17:11:40;2.53;;;1.93;;
7191;SDS011;3637;51.494;11.958;2022-10-16T17:14:43;2.17;;;1.90;;
7191;SDS011;3637;51.494;11.958;2022-10-16T17:17:45;2.23;;;1.80;;
7191;SDS011;3637;51.494;11.958;2022-10-16T17:20:46;4.93;;;2.13;;
7191;SDS011;3637;51.494;11.958;2022-10-16T17:23:51;4.53;;;2.10;;
7191;SDS011;3637;51.494;11.958;2022-10-16T17:26:53;3.50;;;1.90;;
7191;SDS011;3637;51.494;11.958;2022-10-16T17:29:55;2.60;;;2.23;;
7191;SDS011;3637;51.494;11.958;2022-10-16T17:32:57;2.70;;;2.50;;
7191;SDS011;3637;51.494;11.958;2022-10-16T17:35:59;4.17;;;2.53;;
7191;SDS011;3637;51.494;11.958;2022-10-16T17:39:03;5.70;;;3.60;;
7191;SDS011;3637;51.494;11.958;2022-10-16T17:42:07;6.73;;;4.13;;
7191;SDS011;3637;51.494;11.958;2022-10-16T17:45:09;6.37;;;3.87;;
7191;SDS011;3637;51.494;11.958;2022-10-16T17:48:11;8.67;;;4.43;;
7191;SDS011;3637;51.494;11.958;2022-10-16T17:51:15;8.70;;;4.83;;
7191;SDS011;3637;51.494;11.958;2022-10-16T17:54:20;12.57;;;6.23;;
7191;SDS011;3637;51.494;11.958;2022-10-16T17:57:21;8.33;;;4.50;;
7191;SDS011;3637;51.494;11.958;2022-10-16T18:00:23;8.43;;;4.73;;
7191;SDS011;3637;51.494;11.958;2022-10-16T18:03:25;6.43;;;3.93;;
7191;SDS011;3637;51.494;11.958;2022-10-16T18:06:30;7.03;;;3.83;;
7191;SDS011;3637;51.494;11.958;2022-10-16T18:09:34;8.00;;;4.47;;
7191;SDS011;3637;51.494;11.958;2022-10-16T18:12:36;6.80;;;4.30;;
7191;SDS011;3637;51.494;11.958;2022-10-16T18:15:38;7.13;;;3.93;;
7191;SDS011;3637;51.494;11.958;2022-10-16T18:18:41;6.50;;;4.00;;
7191;SDS011;3637;51.494;11.958;2022-10-16T18:21:44;5.50;;;3.70;;
7191;SDS011;3637;51.494;11.958;2022-10-16T18:24:47;8.27;;;4.10;;
7191;SDS011;3637;51.494;11.958;2022-10-16T18:27:49;5.80;;;4.10;;
7191;SDS011;3637;51.494;11.958;2022-10-16T18:30:54;8.13;;;4.77;;
7191;SDS011;3637;51.494;11.958;2022-10-16T18:33:56;7.50;;;4.47;;
7191;SDS011;3637;51.494;11.958;2022-10-16T18:36:58;5.80;;;4.50;;
7191;SDS011;3637;51.494;11.958;2022-10-16T18:40:01;5.80;;;4.23;;
7191;SDS011;3637;51.494;11.958;2022-10-16T18:43:04;3.57;;;2.90;;
7191;SDS011;3637;51.494;11.958;2022-10-16T18:46:06;3.80;;;2.80;;
7191;SDS011;3637;51.494;11.958;2022-10-16T18:49:10;4.17;;;2.97;;
7191;SDS011;3637;51.494;11.958;2022-10-16T18:52:12;3.70;;;2.90;;